Friday, December 14, 2018, 12:04 PM EST
Back to Local

KPNE, N.e. Philadelphia Airport

Location: Philadelphia, PA, United States Lat: 40.083
Local Time: 12:04 PM EST (17:04 GMT) Lon: -75.017
Time Zone: US/Eastern Elev: 121 ft

Show me the last for .
Show Decoded

2018-12-14 10:54 METAR KPNE 141554Z 10004KT 9SM OVC014 10/06 A3044 RMK AO2 SLP307 T01000061 =
2018-12-14 10:49 METAR KPNE 141549Z 10006KT 9SM OVC014 10/07 A3044 RMK AO2 =
2018-12-14 09:54 METAR KPNE 141454Z 10007KT 8SM FEW013 FEW018 OVC025 09/06 A3046 RMK AO2 SLP316
                 T00890061 50000 =
2018-12-14 09:43 METAR KPNE 141443Z 08006KT 8SM SCT015 BKN022 09/06 A3046 RMK AO2 PRESFR
                 T00890056 =
2018-12-14 09:21 METAR KPNE 141421Z 10004KT 7SM BKN013 OVC022 08/06 A3049 RMK AO2 T00830056 =
2018-12-14 08:54 METAR KPNE 141354Z 08003KT 6SM HZ FEW011 OVC023 08/05 A3048 RMK AO2 SLP321
                 T00780050 =
2018-12-14 08:13 METAR KPNE 141313Z 05003KT 5SM BR SCT021 BKN028 BKN033 06/04 A3048 RMK AO2
                 T00610039 =
2018-12-14 08:04 METAR KPNE 141304Z 05003KT 5SM BR FEW016 SCT021 BKN031 06/04 A3047 RMK AO2
                 T00610039 =
2018-12-14 07:54 METAR KPNE 141254Z 06003KT 4SM BR FEW018 BKN028 OVC034 06/04 A3047 RMK AO2
                 SLP317 T00610039 =
2018-12-14 07:06 METAR KPNE 141206Z 00000KT 5SM BR BKN027 05/03 A3047 RMK AO2 T00500033 =
2018-12-14 06:54 METAR KPNE 141154Z 07004KT 6SM BR SCT025 BKN032 BKN060 05/03 A3046 RMK AO2
                 SLP315 T00500028 10056 20039 51008 =
2018-12-14 06:33 METAR KPNE 141133Z 06004KT 6SM BR SCT025 OVC031 06/03 A3045 RMK AO2 T00560033 =
2018-12-14 05:54 METAR KPNE 141054Z AUTO 05005KT 5SM BR BKN026 OVC031 05/03 A3044 RMK AO2 SLP307
                 T00500028 =
2018-12-14 05:32 METAR KPNE 141032Z AUTO 05004KT 5SM BR FEW005 BKN024 OVC028 05/03 A3045 RMK AO2
                 T00500028 =
2018-12-14 04:54 METAR KPNE 140954Z AUTO 05005KT 5SM BR OVC023 05/03 A3044 RMK AO2 SLP307
                 T00500028 =
2018-12-14 03:54 METAR KPNE 140854Z AUTO 06005KT 6SM HZ FEW006 OVC018 05/02 A3044 RMK AO2 SLP308
                 T00500022 56008 =
2018-12-14 03:27 METAR KPNE 140827Z AUTO 05005KT 6SM BR OVC016 05/03 A3046 RMK AO2 T00500028 =
2018-12-14 02:54 METAR KPNE 140754Z AUTO 04004KT 6SM BR OVC014 04/03 A3046 RMK AO2 SLP315
                 T00440028 =
2018-12-14 01:54 METAR KPNE 140654Z AUTO 04004KT 5SM BR OVC011 04/02 A3046 RMK AO2 SLP316
                 T00390017 =
2018-12-14 00:54 METAR KPNE 140554Z AUTO 04007KT 6SM BR OVC013 04/02 A3045 RMK AO2 SLP313
                 T00390017 10044 20011 58005 =
2018-12-13 23:54 METAR KPNE 140454Z AUTO 04004KT 6SM BR OVC013 03/01 A3047 RMK AO2 SLP317
                 T00330011 401060006 =
2018-12-13 23:35 METAR KPNE 140435Z AUTO 04006KT 6SM BR BKN013 BKN018 OVC028 03/01 A3046 RMK AO2
                 T00330011 =
2018-12-13 23:17 METAR KPNE 140417Z AUTO 04006KT 6SM BR BKN015 OVC026 02/00 A3047 RMK AO2
                 T00220000 =
2018-12-13 22:54 METAR KPNE 140354Z AUTO 04004KT 6SM BR BKN011 02/M01 A3047 RMK AO2 SLP317
                 T00171006 =
2018-12-13 21:54 METAR KPNE 140254Z 04005KT 7SM CLR 01/M01 A3046 RMK AO2 SLP315 T00111011 51008 =
2018-12-13 20:54 METAR KPNE 140154Z 03005KT 8SM CLR 02/M01 A3046 RMK AO2 SLP314 T00171011 =
2018-12-13 19:54 METAR KPNE 140054Z 04005KT 8SM CLR 02/M01 A3046 RMK AO2 SLP314 T00221006 =
2018-12-13 18:54 METAR KPNE 132354Z 04006KT 9SM CLR 03/M01 A3044 RMK AO2 SLP307 T00331006 10106
                 20033 53015 =
2018-12-13 17:54 METAR KPNE 132254Z 05007KT 10SM OVC100 06/00 A3042 RMK AO2 SLP301 T00560000 =
2018-12-13 16:54 METAR KPNE 132154Z 11006KT 10SM OVC100 08/01 A3040 RMK AO2 SLP296 T00830011 =
2018-12-13 15:54 METAR KPNE 132054Z 12006KT 10SM BKN080 09/01 A3039 RMK AO2 SLP292 T00890006
                 51010 =
2018-12-13 14:54 METAR KPNE 131954Z 11006KT 10SM OVC042 10/01 A3039 RMK AO2 SLP290 T01000006 =
2018-12-13 13:54 METAR KPNE 131854Z 13008KT 10SM BKN040 OVC055 11/00 A3037 RMK AO2 SLP283
                 T01060000 =
2018-12-13 12:54 METAR KPNE 131754Z 14011KT 10SM BKN038 09/01 A3036 RMK AO2 SLP281 T00940006
                 10100 20028 55010 =

Support USWX by starting your Amazon purchase here.